Time;durP1;ratioP1;P1;durP2;ratioP2;P2;SDS_P1;SDS_P2;PMS_P1;PMS_P2;Temp;Humidity;BMP_temperature;BMP_pressure;BME280_temperature;BME280_humidity;BME280_pressure;Samples;Min_cycle;Max_cycle;Signal;HPM_P1;HPM_P2
2023/12/14 00:03:22;;;;;;;;;;;9.30;66.10;;;7.51;65.65;100162.09;12249411;19;19915;-86
2023/12/14 00:07:24;;;;;;;;;;;9.20;66.10;;;7.64;65.67;100190.84;12248183;19;19931;-86
2023/12/14 00:11:25;;;;;;;;;;;9.10;66.20;;;7.70;65.54;100203.56;12245058;19;19955;-85
2023/12/14 00:15:27;;;;;;;;;;;9.10;66.20;;;7.64;65.70;100206.44;12246734;19;19927;-85
2023/12/14 00:19:28;;;;;;;;;;;9.10;66.20;;;7.49;65.54;100184.69;12244798;19;19915;-86
2023/12/14 00:23:30;;;;;;;;;;;9.10;66.20;;;7.66;65.66;100218.44;12245975;19;19919;-86
2023/12/14 00:27:32;;;;;;;;;;;9.10;66.00;;;7.69;65.74;100225.25;12248653;19;19933;-85
2023/12/14 00:31:33;;;;;;;;;;;9.30;66.40;;;7.69;65.44;100228.69;12244942;19;20279;-86
2023/12/14 00:35:35;;;;;;;;;;;9.10;66.50;;;7.62;65.71;100231.69;12245324;19;19915;-85
2023/12/14 00:39:36;;;;;;;;;;;9.10;66.20;;;7.62;65.53;100250.72;12246500;19;19923;-84
2023/12/14 00:43:38;;;;;;;;;;;9.00;66.10;;;7.66;65.72;100249.63;12245830;19;19922;-86
2023/12/14 00:47:40;;;;;;;;;;;9.20;65.80;;;7.71;65.69;100268.44;12247752;19;19914;-85
2023/12/14 00:51:41;;;;;;;;;;;9.10;65.70;;;7.56;65.58;100252.75;12244182;19;19926;-86
2023/12/14 00:55:45;;;;;;;;;;;9.10;65.90;;;7.67;65.63;100281.66;12243963;19;19922;-86
2023/12/14 00:59:47;;;;;;;;;;;9.10;65.50;;;7.56;65.39;100266.63;12246091;19;20617;-86
2023/12/14 01:03:48;;;;;;;;;;;9.10;65.50;;;7.55;65.33;100277.91;12247377;19;19922;-86
2023/12/14 01:07:50;;;;;;;;;;;9.00;65.30;;;7.30;65.37;100241.94;12245071;19;19915;-85
2023/12/14 01:11:51;;;;;;;;;;;9.00;65.30;;;7.61;65.47;100316.56;12241734;19;19918;-86
2023/12/14 01:15:53;;;;;;;;;;;9.00;65.40;;;7.61;65.37;100306.19;12246191;19;19911;-86
2023/12/14 01:19:54;;;;;;;;;;;9.10;65.30;;;7.59;65.52;100308.03;12243793;19;19914;-86
2023/12/14 01:23:56;;;;;;;;;;;9.00;65.80;;;7.53;65.31;100318.72;12245429;19;20609;-86
2023/12/14 01:27:57;;;;;;;;;;;9.00;65.10;;;7.51;65.51;100334.41;12244306;19;19933;-86
2023/12/14 01:31:59;;;;;;;;;;;8.90;64.80;;;7.28;65.51;100303.50;12241071;19;19915;-86
2023/12/14 01:36:00;;;;;;;;;;;8.90;65.00;;;7.35;65.39;100330.84;12243265;19;19994;-86
2023/12/14 01:40:02;;;;;;;;;;;8.90;65.10;;;7.38;65.53;100350.66;12242207;19;20330;-86
2023/12/14 01:44:04;;;;;;;;;;;8.80;65.00;;;7.32;65.68;100351.78;12244734;19;19926;-86
2023/12/14 01:48:06;;;;;;;;;;;8.80;64.90;;;7.34;65.54;100364.69;12255681;19;19918;-86
2023/12/14 01:52:07;;;;;;;;;;;8.80;65.00;;;7.28;65.67;100350.22;12249601;19;19918;-86
2023/12/14 01:56:09;;;;;;;;;;;8.70;65.10;;;7.19;65.46;100338.53;12254186;19;19919;-86
2023/12/14 02:00:18;;;;;;;;;;;8.70;65.00;;;7.34;65.57;100368.13;12252698;19;19939;-86
2023/12/14 02:04:19;;;;;;;;;;;8.70;65.20;;;7.06;65.56;100340.03;12254662;19;20333;-86
2023/12/14 02:08:21;;;;;;;;;;;8.70;65.20;;;7.30;65.69;100387.38;12255048;19;19918;-86
2023/12/14 02:12:22;;;;;;;;;;;8.70;65.10;;;7.25;65.64;100384.16;12250033;19;20378;-86
2023/12/14 02:16:23;;;;;;;;;;;8.60;65.20;;;7.20;65.52;100380.91;12254855;19;19922;-86
2023/12/14 02:20:25;;;;;;;;;;;8.60;65.00;;;7.18;65.48;100380.97;12252425;19;19919;-86
2023/12/14 02:24:26;;;;;;;;;;;8.60;65.00;;;7.17;65.35;100371.53;12253374;19;20352;-86
2023/12/14 02:28:27;;;;;;;;;;;8.60;65.10;;;7.23;65.40;100385.97;12253961;19;19934;-86
2023/12/14 02:32:29;;;;;;;;;;;8.60;65.10;;;7.27;65.41;100387.53;12244656;19;19922;-86
2023/12/14 02:36:30;;;;;;;;;;;8.60;65.10;;;7.22;65.53;100390.31;12253825;19;19922;-86
2023/12/14 02:40:32;;;;;;;;;;;8.60;64.90;;;7.14;65.43;100384.66;12250964;19;19911;-86
2023/12/14 02:44:34;;;;;;;;;;;8.60;64.80;;;7.14;65.65;100386.41;12251926;19;19911;-86
2023/12/14 02:48:35;;;;;;;;;;;8.60;64.90;;;7.21;65.54;100413.75;12253014;19;19918;-85
2023/12/14 02:52:36;;;;;;;;;;;8.60;64.80;;;7.19;65.61;100413.84;12248690;19;20355;-86
2023/12/14 02:56:37;;;;;;;;;;;8.50;64.70;;;7.13;65.46;100410.66;12250703;19;19911;-86
2023/12/14 03:00:39;;;;;;;;;;;8.50;64.60;;;7.10;65.53;100409.06;12249968;19;19926;-86
2023/12/14 03:04:41;;;;;;;;;;;8.50;64.60;;;6.99;65.40;100409.53;12250767;19;19911;-86
2023/12/14 03:08:42;;;;;;;;;;;8.50;64.60;;;7.04;65.75;100423.16;12249907;19;19914;-86
2023/12/14 03:12:44;;;;;;;;;;;8.50;64.80;;;7.08;65.44;100423.88;12248185;19;19923;-86
2023/12/14 03:16:46;;;;;;;;;;;8.50;64.80;;;6.96;65.27;100408.84;12250748;19;19918;-86
2023/12/14 03:20:47;;;;;;;;;;;8.50;64.70;;;7.04;65.26;100436.13;12249775;19;19922;-86
2023/12/14 03:24:49;;;;;;;;;;;8.50;64.60;;;6.98;65.34;100428.63;12251267;19;20401;-86
2023/12/14 03:28:50;;;;;;;;;;;8.50;64.60;;;7.05;65.44;100445.63;12251597;19;19926;-86
2023/12/14 03:32:52;;;;;;;;;;;8.50;64.70;;;6.91;65.43;100427.22;12247400;19;19922;-86
2023/12/14 03:36:53;;;;;;;;;;;8.60;64.50;;;7.09;65.55;100467.94;12250798;19;19944;-86
2023/12/14 03:40:55;;;;;;;;;;;8.50;64.60;;;7.05;65.34;100466.41;12248510;19;19927;-86
2023/12/14 03:44:57;;;;;;;;;;;8.50;64.50;;;7.06;65.34;100470.69;12250064;19;20280;-86
2023/12/14 03:48:59;;;;;;;;;;;8.40;64.40;;;6.87;65.59;100447.28;12248138;19;19918;-85
2023/12/14 03:53:00;;;;;;;;;;;8.40;64.40;;;6.94;65.55;100478.16;12246197;19;20322;-85
2023/12/14 03:57:01;;;;;;;;;;;8.40;64.40;;;6.97;65.60;100486.66;12247138;19;19918;-85
2023/12/14 04:01:03;;;;;;;;;;;8.40;64.50;;;6.68;65.47;100440.41;12248132;19;19911;-86
2023/12/14 04:05:11;;;;;;;;;;;8.40;64.50;;;7.02;65.57;100497.69;12247398;19;19939;-85
2023/12/14 04:09:13;;;;;;;;;;;8.40;64.60;;;7.00;65.38;100499.50;12247436;19;19915;-85
2023/12/14 04:13:14;;;;;;;;;;;8.40;64.70;;;6.76;65.54;100464.25;12244691;19;19923;-86
2023/12/14 04:17:16;;;;;;;;;;;8.60;64.70;;;6.86;65.58;100479.34;12247665;19;19918;-85
2023/12/14 04:21:18;;;;;;;;;;;8.40;64.50;;;6.91;65.46;100504.25;12244110;19;19932;-86
2023/12/14 04:25:19;;;;;;;;;;;8.40;64.50;;;6.75;65.54;100476.38;12245592;19;19915;-85
2023/12/14 04:29:21;;;;;;;;;;;8.40;64.40;;;6.84;65.44;100516.66;12246477;19;19919;-86
2023/12/14 04:33:22;;;;;;;;;;;8.30;64.40;;;6.88;65.59;100520.78;12243974;19;19930;-85
2023/12/14 04:37:24;;;;;;;;;;;8.30;64.40;;;6.85;65.56;100526.97;12246759;19;19979;-85
2023/12/14 04:41:26;;;;;;;;;;;8.30;64.40;;;6.91;65.41;100538.00;12243565;19;19959;-86
2023/12/14 04:45:27;;;;;;;;;;;8.30;64.40;;;6.93;65.63;100550.00;12244980;19;19915;-85
2023/12/14 04:49:29;;;;;;;;;;;8.40;64.50;;;6.92;65.46;100563.91;12245701;19;19922;-86
2023/12/14 04:53:30;;;;;;;;;;;8.30;64.40;;;6.93;65.48;100569.94;12242244;19;19958;-85
2023/12/14 04:57:32;;;;;;;;;;;8.30;64.40;;;6.93;65.60;100569.94;12244617;19;19915;-85
2023/12/14 05:01:33;;;;;;;;;;;8.40;64.50;;;6.99;65.55;100580.03;12241762;19;20227;-85
2023/12/14 05:05:34;;;;;;;;;;;8.40;64.50;;;6.95;65.50;100576.75;12246934;19;19970;-85
2023/12/14 05:09:36;;;;;;;;;;;8.40;64.40;;;6.99;65.51;100573.09;12242226;19;19907;-86
2023/12/14 05:13:37;;;;;;;;;;;8.50;64.50;;;6.76;65.35;100542.09;12242850;19;20355;-85
2023/12/14 05:17:38;;;;;;;;;;;8.40;64.40;;;6.98;65.38;100588.75;12244485;19;19911;-86
2023/12/14 05:21:40;;;;;;;;;;;8.40;65.00;;;6.85;65.59;100585.81;12249473;19;19907;-85
2023/12/14 05:25:41;;;;;;;;;;;8.40;64.40;;;6.94;65.44;100608.81;12257554;19;19915;-85
2023/12/14 05:29:42;;;;;;;;;;;8.30;64.30;;;6.94;65.52;100619.19;12252951;19;19933;-85
2023/12/14 05:33:44;;;;;;;;;;;8.30;64.40;;;6.93;65.41;100621.84;12246877;19;19962;-85
2023/12/14 05:37:46;;;;;;;;;;;8.30;64.40;;;6.86;65.47;100608.28;12256772;19;19911;-85
2023/12/14 05:41:47;;;;;;;;;;;8.40;64.40;;;6.93;65.66;100634.81;12251158;19;19923;-86
2023/12/14 05:45:49;;;;;;;;;;;8.30;64.40;;;6.94;65.58;100639.97;12255397;19;19922;-85
2023/12/14 05:49:51;;;;;;;;;;;8.30;64.40;;;6.95;65.55;100653.78;12254284;19;19907;-86
2023/12/14 05:53:52;;;;;;;;;;;8.40;64.50;;;6.96;65.29;100671.03;12249567;19;20254;-85
2023/12/14 05:57:54;;;;;;;;;;;8.40;64.40;;;7.00;65.46;100676.03;12254620;19;19940;-85
2023/12/14 06:01:57;;;;;;;;;;;8.40;64.50;;;6.75;65.38;100641.59;12250333;19;19914;-86
2023/12/14 06:05:59;;;;;;;;;;;8.60;64.50;;;6.94;65.45;100670.25;12254335;19;20313;-86
2023/12/14 06:10:01;;;;;;;;;;;8.40;64.40;;;6.94;65.38;100683.22;12252213;19;19914;-86
2023/12/14 06:14:02;;;;;;;;;;;8.40;64.30;;;6.75;65.27;100663.22;12249332;19;19939;-86
2023/12/14 06:18:04;;;;;;;;;;;8.40;64.30;;;6.89;65.50;100690.38;12252627;19;20280;-86
2023/12/14 06:22:06;;;;;;;;;;;8.40;64.30;;;6.90;65.59;100700.69;12248953;19;19929;-85
2023/12/14 06:26:08;;;;;;;;;;;8.40;64.40;;;6.90;65.60;100710.22;12254750;19;19915;-85
2023/12/14 06:30:10;;;;;;;;;;;8.30;64.90;;;6.89;65.66;100719.78;12251343;19;19919;-86
2023/12/14 06:34:12;;;;;;;;;;;8.30;64.30;;;6.75;65.65;100696.97;12248433;19;19917;-86
2023/12/14 06:38:13;;;;;;;;;;;8.30;64.40;;;6.84;65.68;100716.50;12253898;19;19926;-86
2023/12/14 06:42:15;;;;;;;;;;;8.30;64.40;;;6.83;65.61;100713.06;12250036;19;19914;-86
2023/12/14 06:46:16;;;;;;;;;;;8.30;64.40;;;6.91;65.41;100727.47;12253193;19;19940;-86
2023/12/14 06:50:18;;;;;;;;;;;8.50;64.60;;;6.67;65.33;100698.16;12252066;19;19911;-85
2023/12/14 06:54:20;;;;;;;;;;;8.30;64.40;;;6.87;65.48;100734.56;12252056;19;19923;-85
2023/12/14 06:58:21;;;;;;;;;;;8.30;64.40;;;6.85;65.65;100746.75;12252268;19;19915;-86
2023/12/14 07:02:22;;;;;;;;;;;8.30;64.30;;;6.81;65.66;100743.44;12247476;19;19918;-86
2023/12/14 07:06:24;;;;;;;;;;;8.30;64.40;;;6.57;65.55;100716.69;12250217;19;19926;-86
2023/12/14 07:10:25;;;;;;;;;;;8.30;64.30;;;6.72;65.41;100748.13;12247492;19;20262;-87
2023/12/14 07:14:26;;;;;;;;;;;8.30;64.40;;;6.83;65.42;100767.59;12248276;19;19931;-85
2023/12/14 07:18:28;;;;;;;;;;;8.30;64.30;;;6.71;65.34;100777.59;12250865;19;20013;-85
2023/12/14 07:22:29;;;;;;;;;;;8.40;64.30;;;6.76;65.69;100799.03;12245220;19;19975;-86
2023/12/14 07:26:31;;;;;;;;;;;8.20;64.10;;;6.75;65.62;100798.19;12249887;19;20267;-85
2023/12/14 07:30:33;;;;;;;;;;;8.20;64.30;;;6.48;65.57;100755.09;12248207;19;19925;-85
2023/12/14 07:34:34;;;;;;;;;;;8.30;64.40;;;6.81;65.49;100813.50;12247902;19;19954;-85
2023/12/14 07:38:35;;;;;;;;;;;8.30;64.50;;;6.84;65.68;100817.75;12250861;19;19923;-85
2023/12/14 07:42:37;;;;;;;;;;;8.30;64.40;;;6.79;65.60;100819.66;12243985;19;20014;-85
2023/12/14 07:46:41;;;;;;;;;;;8.30;64.50;;;6.80;65.53;100829.13;12250446;19;19914;-86
2023/12/14 07:50:43;;;;;;;;;;;8.30;64.40;;;6.91;65.44;100852.91;12246855;19;20376;-88
2023/12/14 07:54:44;;;;;;;;;;;8.30;64.30;;;6.92;65.61;100862.41;12250208;19;19923;-87
2023/12/14 07:58:46;;;;;;;;;;;8.30;64.40;;;6.82;65.55;100851.53;12247014;19;20396;-88
2023/12/14 08:02:48;;;;;;;;;;;8.30;64.30;;;6.89;65.56;100865.13;12246171;19;19922;-87
2023/12/14 08:06:49;;;;;;;;;;;8.40;64.30;;;6.85;65.36;100859.19;12245132;19;19918;-87
2023/12/14 08:10:51;;;;;;;;;;;8.40;64.40;;;6.83;65.38;100867.94;12245562;19;19907;-87
2023/12/14 08:14:52;;;;;;;;;;;8.40;64.30;;;6.80;65.36;100875.84;12247914;19;19922;-87
2023/12/14 08:18:53;;;;;;;;;;;8.30;64.10;;;6.73;65.41;100871.81;12246915;19;19932;-87
2023/12/14 08:22:55;;;;;;;;;;;8.30;64.10;;;6.82;65.37;100889.63;12246253;19;19918;-87
2023/12/14 08:26:57;;;;;;;;;;;8.30;64.20;;;6.69;65.51;100878.00;12245165;19;20265;-87
2023/12/14 08:30:58;;;;;;;;;;;8.30;64.10;;;6.82;65.44;100911.22;12240268;19;19925;-87
2023/12/14 08:35:00;;;;;;;;;;;8.30;64.10;;;6.87;65.61;100914.50;12244482;19;19948;-87
2023/12/14 08:39:02;;;;;;;;;;;8.30;64.10;;;6.89;65.51;100929.19;12246757;19;19935;-87
2023/12/14 08:43:03;;;;;;;;;;;8.30;64.20;;;6.86;65.56;100938.78;12245898;19;19926;-87
2023/12/14 08:47:05;;;;;;;;;;;8.30;64.10;;;6.74;65.46;100922.78;12242711;19;20326;-89
2023/12/14 08:51:06;;;;;;;;;;;8.30;64.10;;;6.79;65.51;100949.44;12242432;19;19926;-88
2023/12/14 08:55:08;;;;;;;;;;;8.30;64.00;;;6.84;65.55;100965.69;12249997;19;20337;-88
2023/12/14 08:59:09;;;;;;;;;;;8.40;64.10;;;6.72;65.24;100953.97;12258640;19;19923;-89
2023/12/14 09:03:11;;;;;;;;;;;8.30;64.00;;;6.65;65.46;100955.94;12258306;19;19978;-89
2023/12/14 09:07:12;;;;;;;;;;;8.30;64.00;;;6.70;65.64;100967.91;12254223;19;20285;-89
2023/12/14 09:11:15;;;;;;;;;;;8.30;64.20;;;6.58;65.64;100951.03;12252556;19;19978;-87
2023/12/14 09:15:16;;;;;;;;;;;8.30;64.10;;;6.72;65.48;100981.69;12257673;19;19915;-87
2023/12/14 09:19:18;;;;;;;;;;;8.30;64.20;;;6.77;65.60;100997.94;12255399;19;19944;-85
2023/12/14 09:23:19;;;;;;;;;;;8.30;64.20;;;6.89;65.57;101010.50;12254527;19;19922;-85
2023/12/14 09:27:21;;;;;;;;;;;8.30;64.20;;;6.84;65.47;101002.88;12257230;19;20219;-87
2023/12/14 09:31:22;;;;;;;;;;;8.30;64.30;;;6.86;65.55;101006.25;12252768;19;20349;-86
2023/12/14 09:35:23;;;;;;;;;;;8.30;64.20;;;6.78;65.48;101002.25;12255410;19;19922;-87
2023/12/14 09:39:25;;;;;;;;;;;8.30;64.10;;;6.78;65.60;101010.88;12254300;19;19914;-87
2023/12/14 09:43:26;;;;;;;;;;;8.50;64.40;;;6.91;65.55;101034.63;12256543;19;19910;-88
2023/12/14 09:47:27;;;;;;;;;;;8.30;64.20;;;6.77;65.59;101014.34;12254743;19;19952;-88
2023/12/14 09:51:30;;;;;;;;;;;8.30;64.10;;;6.83;65.54;101039.25;12252046;19;19914;-88
2023/12/14 09:55:32;;;;;;;;;;;8.40;64.10;;;6.81;65.49;101030.69;12256231;19;19919;-88
2023/12/14 09:59:34;;;;;;;;;;;8.30;64.10;;;6.82;65.63;101038.41;12249006;19;19939;-88
2023/12/14 10:03:35;;;;;;;;;;;8.30;64.10;;;6.79;65.42;101037.66;12248498;19;20282;-88
2023/12/14 10:07:46;;;;;;;;;;;8.30;64.10;;;6.89;65.54;101058.97;12253079;19;19924;-87
2023/12/14 10:11:47;;;;;;;;;;;8.30;64.10;;;6.77;65.39;101047.25;12249798;19;19946;-87
2023/12/14 10:15:49;;;;;;;;;;;8.40;64.20;;;6.84;65.58;101059.97;12255155;19;19933;-88
2023/12/14 10:19:50;;;;;;;;;;;8.30;64.10;;;6.80;65.44;101057.53;12252299;19;19970;-87
2023/12/14 10:23:54;;;;;;;;;;;8.30;64.20;;;6.84;65.52;101075.53;12254228;19;20330;-87
2023/12/14 10:27:57;;;;;;;;;;;8.30;64.20;;;6.84;65.48;101074.72;12251025;19;19929;-87
2023/12/14 10:31:59;;;;;;;;;;;8.30;64.20;;;6.80;65.47;101068.75;12248387;19;19919;-86
2023/12/14 10:36:01;;;;;;;;;;;8.30;64.20;;;6.77;65.59;101068.00;12251685;19;19929;-87
2023/12/14 10:40:06;;;;;;;;;;;8.30;64.30;;;6.81;65.44;101074.81;12249927;19;19935;-89
2023/12/14 10:44:08;;;;;;;;;;;8.30;64.10;;;6.80;65.58;101078.28;12250258;19;19922;-88
2023/12/14 10:48:13;;;;;;;;;;;8.30;64.20;;;6.84;65.57;101093.72;12252170;19;19935;-89
2023/12/14 10:52:14;;;;;;;;;;;8.30;64.10;;;6.72;65.46;101077.69;12248115;19;19919;-88
2023/12/14 10:56:17;;;;;;;;;;;8.30;64.10;;;6.80;65.52;101097.31;12251018;19;19927;-88
2023/12/14 11:00:18;;;;;;;;;;;8.30;64.10;;;6.85;65.46;101107.53;12247849;19;19978;-88
2023/12/14 11:04:23;;;;;;;;;;;8.30;64.00;;;6.80;65.57;101088.66;12251496;19;20354;-88
2023/12/14 11:08:25;;;;;;;;;;;8.30;63.90;;;6.83;65.33;101105.00;12250102;19;19919;-88
2023/12/14 11:12:27;;;;;;;;;;;8.40;64.10;;;6.91;65.63;101125.50;12243556;19;19917;-87
2023/12/14 11:16:28;;;;;;;;;;;8.40;64.00;;;6.86;65.60;101130.03;12243660;19;19940;-88
2023/12/14 11:20:30;;;;;;;;;;;8.40;64.10;;;6.91;65.58;101120.31;12248498;19;20239;-88
2023/12/14 11:24:31;;;;;;;;;;;8.40;64.10;;;6.80;65.63;101112.03;12250345;19;19922;-88
2023/12/14 11:28:37;;;;;;;;;;;8.40;64.10;;;6.92;65.56;101131.56;12249276;19;19914;-87
2023/12/14 11:32:39;;;;;;;;;;;8.40;64.20;;;6.96;65.42;101136.56;12243116;19;19939;-88
2023/12/14 11:36:41;;;;;;;;;;;8.40;64.20;;;6.99;65.66;101131.28;12251034;19;20272;-88
2023/12/14 11:40:42;;;;;;;;;;;8.50;64.30;;;6.73;65.49;101089.78;12249181;19;19922;-88
2023/12/14 11:44:44;;;;;;;;;;;8.50;64.10;;;7.01;65.46;101133.84;12247773;19;19915;-87
2023/12/14 11:48:46;;;;;;;;;;;8.50;64.10;;;6.71;65.60;101094.19;12247403;19;19927;-88
2023/12/14 11:52:47;;;;;;;;;;;8.50;64.10;;;7.04;65.63;101155.34;12247467;19;20260;-88
2023/12/14 11:56:49;;;;;;;;;;;8.50;64.00;;;7.04;65.52;101157.09;12249156;19;20308;-88
2023/12/14 12:00:51;;;;;;;;;;;8.50;63.90;;;7.09;65.68;101170.78;12247393;19;19935;-88
2023/12/14 12:04:53;;;;;;;;;;;8.70;64.00;;;6.97;65.63;101159.06;12248116;19;19939;-87
2023/12/14 12:08:55;;;;;;;;;;;8.50;63.90;;;7.08;65.60;101176.88;12248045;19;20309;-87
2023/12/14 12:13:06;;;;;;;;;;;8.60;63.80;;;6.98;65.57;101165.94;12242511;19;19926;-87
2023/12/14 12:17:08;;;;;;;;;;;8.60;63.70;;;6.94;65.70;101166.09;12247901;19;19951;-88
2023/12/14 12:21:12;;;;;;;;;;;8.80;64.00;;;7.04;65.55;101189.09;12243602;19;20330;-88
2023/12/14 12:25:13;;;;;;;;;;;8.60;63.90;;;7.13;65.62;101207.88;12247798;19;19939;-87
2023/12/14 12:29:14;;;;;;;;;;;8.60;64.00;;;6.97;65.54;101185.03;12243105;19;19911;-88
2023/12/14 12:33:16;;;;;;;;;;;8.90;64.20;;;7.15;65.68;101211.28;12243217;19;19911;-88
2023/12/14 12:37:17;;;;;;;;;;;8.60;63.90;;;7.12;65.68;101213.97;12244294;19;20267;-89
2023/12/14 12:41:19;;;;;;;;;;;8.60;63.70;;;7.02;65.65;101195.25;12243850;19;19914;-88
2023/12/14 12:45:22;;;;;;;;;;;8.60;63.70;;;6.92;65.55;101181.72;12245481;19;19934;-88
2023/12/14 12:49:23;;;;;;;;;;;8.60;63.80;;;7.09;65.38;101226.16;12246642;19;19911;-87
2023/12/14 12:53:26;;;;;;;;;;;8.60;63.70;;;6.99;65.44;101209.16;12244605;19;20266;-87
2023/12/14 12:57:28;;;;;;;;;;;8.60;63.70;;;7.11;65.46;101236.50;12247961;19;19907;-86
2023/12/14 13:01:29;;;;;;;;;;;8.60;63.70;;;6.87;65.70;101207.00;12243455;19;19927;-87
2023/12/14 13:05:31;;;;;;;;;;;8.60;63.70;;;7.02;65.42;101241.97;12247021;19;19926;-87
2023/12/14 13:09:33;;;;;;;;;;;8.60;63.70;;;7.09;65.40;101262.50;12245769;19;20317;-87
2023/12/14 13:13:34;;;;;;;;;;;8.60;63.70;;;7.11;65.48;101261.63;12239511;19;20330;-87
2023/12/14 13:17:36;;;;;;;;;;;8.60;64.30;;;7.05;65.33;101249.69;12245900;19;19919;-87
2023/12/14 13:21:38;;;;;;;;;;;8.60;63.70;;;7.14;65.59;101271.91;12246274;19;19910;-89
2023/12/14 13:25:39;;;;;;;;;;;8.80;63.80;;;7.05;65.49;101271.31;12247582;19;19931;-87
2023/12/14 13:29:41;;;;;;;;;;;8.80;63.80;;;6.93;65.54;101250.91;12244243;19;19936;-88
2023/12/14 13:33:47;;;;;;;;;;;8.60;63.50;;;7.17;65.47;101293.44;12239427;19;20221;-87
2023/12/14 13:37:49;;;;;;;;;;;8.60;63.50;;;7.09;65.51;101282.44;12246683;19;19911;-85
2023/12/14 13:41:50;;;;;;;;;;;8.60;63.60;;;7.18;65.72;101302.91;12246854;19;19944;-85
2023/12/14 13:45:57;;;;;;;;;;;8.60;63.70;;;6.86;65.41;101252.88;12259307;19;19946;-85
2023/12/14 13:49:59;;;;;;;;;;;8.70;63.80;;;7.20;65.50;101314.13;12256474;19;19944;-88
2023/12/14 13:54:00;;;;;;;;;;;8.60;63.70;;;7.19;65.45;101317.63;12250932;19;19919;-88
2023/12/14 13:58:02;;;;;;;;;;;8.80;64.00;;;7.13;65.67;101320.41;12251866;19;19929;-87
2023/12/14 14:02:03;;;;;;;;;;;8.80;63.90;;;7.13;65.44;101323.00;12250239;19;19936;-87
2023/12/14 14:06:05;;;;;;;;;;;8.70;63.70;;;7.23;65.65;101357.31;12254888;19;19918;-87
2023/12/14 14:10:07;;;;;;;;;;;8.70;63.70;;;7.19;65.66;101364.38;12252150;19;19915;-87
2023/12/14 14:14:09;;;;;;;;;;;8.70;63.70;;;7.20;65.59;101388.59;12249781;19;19919;-87
2023/12/14 14:18:11;;;;;;;;;;;8.70;63.60;;;7.20;65.40;101394.63;12254556;19;19919;-87
2023/12/14 14:22:12;;;;;;;;;;;8.70;63.60;;;7.18;65.56;101395.56;12251172;19;19914;-87
2023/12/14 14:26:13;;;;;;;;;;;8.70;63.70;;;7.10;65.46;101393.19;12254090;19;19926;-87
2023/12/14 14:30:16;;;;;;;;;;;8.70;63.60;;;7.16;65.63;101410.38;12253380;19;19915;-87
2023/12/14 14:34:17;;;;;;;;;;;8.90;63.80;;;7.12;65.69;101401.81;12247185;19;20479;-87
2023/12/14 14:38:19;;;;;;;;;;;8.60;63.50;;;7.02;65.38;101392.59;12253605;19;20267;-87
2023/12/14 14:42:21;;;;;;;;;;;8.70;63.60;;;7.12;65.34;101421.75;12248905;19;20322;-87
2023/12/14 14:46:23;;;;;;;;;;;8.60;63.60;;;6.92;65.55;101397.22;12253637;19;19918;-87
2023/12/14 14:50:24;;;;;;;;;;;8.60;64.30;;;7.08;65.51;101436.56;12249835;19;19918;-87
2023/12/14 14:54:25;;;;;;;;;;;8.70;63.70;;;7.08;65.37;101437.41;12251224;19;19910;-87
2023/12/14 14:58:27;;;;;;;;;;;8.60;63.50;;;7.03;65.58;101436.69;12252576;19;19911;-87
2023/12/14 15:02:28;;;;;;;;;;;8.60;63.60;;;7.05;65.52;101445.31;12248072;19;19922;-87
2023/12/14 15:06:29;;;;;;;;;;;8.60;63.40;;;6.94;65.39;101439.56;12251926;19;19919;-87
2023/12/14 15:10:31;;;;;;;;;;;8.60;63.50;;;7.01;65.44;101456.66;12247558;19;19982;-87
2023/12/14 15:14:33;;;;;;;;;;;8.60;63.60;;;6.90;65.57;101448.31;12250571;19;19918;-86
2023/12/14 15:18:41;;;;;;;;;;;8.60;63.60;;;6.98;65.40;101468.88;12245710;19;20627;-87
2023/12/14 15:22:42;;;;;;;;;;;8.50;63.50;;;7.09;65.48;101488.44;12251667;19;20352;-86
2023/12/14 15:26:43;;;;;;;;;;;8.50;63.60;;;6.99;65.49;101478.38;12250102;19;19911;-87
2023/12/14 15:30:45;;;;;;;;;;;8.50;64.40;;;7.09;65.41;101496.25;12246774;19;19919;-87
2023/12/14 15:34:46;;;;;;;;;;;8.50;63.70;;;7.05;65.41;101494.63;12250521;19;19944;-87
2023/12/14 15:38:47;;;;;;;;;;;8.50;63.60;;;6.81;65.33;101451.19;12250313;19;19926;-87
2023/12/14 15:42:51;;;;;;;;;;;8.60;63.60;;;7.07;65.24;101497.19;12247405;19;19941;-86
2023/12/14 15:46:52;;;;;;;;;;;8.60;63.40;;;7.00;65.42;101486.13;12249397;19;19974;-86
2023/12/14 15:50:53;;;;;;;;;;;8.60;63.30;;;6.95;65.17;101489.75;12247124;19;19921;-86
2023/12/14 15:54:55;;;;;;;;;;;8.50;63.20;;;6.92;65.20;101492.44;12247408;19;19914;-87
2023/12/14 15:58:57;;;;;;;;;;;8.50;63.10;;;6.97;65.31;101513.94;12247982;19;19923;-87
2023/12/14 16:02:59;;;;;;;;;;;8.50;63.20;;;6.93;65.51;101517.50;12245808;19;19918;-86
2023/12/14 16:07:00;;;;;;;;;;;8.50;63.30;;;7.00;65.38;101547.59;12249204;19;19927;-87
2023/12/14 16:11:02;;;;;;;;;;;8.50;63.40;;;6.78;65.25;101519.63;12244759;19;19932;-86
2023/12/14 16:15:04;;;;;;;;;;;8.50;63.50;;;7.01;65.63;101564.88;12247455;19;19948;-87
2023/12/14 16:19:05;;;;;;;;;;;8.50;63.60;;;6.77;65.37;101536.06;12247461;19;19919;-87
2023/12/14 16:23:07;;;;;;;;;;;8.50;63.60;;;7.07;65.42;101590.66;12247820;19;19907;-87
2023/12/14 16:27:10;;;;;;;;;;;8.50;63.60;;;6.96;65.38;101572.78;12248366;19;19928;-87
2023/12/14 16:31:11;;;;;;;;;;;8.80;63.80;;;6.63;65.38;101518.25;12245439;19;20270;-87
2023/12/14 16:35:13;;;;;;;;;;;8.50;63.40;;;6.88;65.57;101564.34;12246855;19;20251;-87
2023/12/14 16:39:15;;;;;;;;;;;8.60;63.50;;;6.92;65.45;101576.34;12242683;19;20345;-87
2023/12/14 16:43:19;;;;;;;;;;;8.50;63.30;;;7.00;65.41;101605.56;12245237;19;19923;-87
2023/12/14 16:47:20;;;;;;;;;;;8.60;63.20;;;6.78;65.44;101578.47;12241274;19;19948;-87
2023/12/14 16:51:24;;;;;;;;;;;8.60;63.20;;;7.06;65.42;101639.16;12242742;19;19915;-87
2023/12/14 16:55:26;;;;;;;;;;;8.50;63.20;;;7.04;65.25;101637.50;12243376;19;20344;-87
2023/12/14 16:59:27;;;;;;;;;;;8.60;63.30;;;7.01;65.58;101638.44;12243630;19;19921;-87
2023/12/14 17:03:29;;;;;;;;;;;8.60;63.20;;;7.01;65.55;101638.44;12244925;19;19918;-87
2023/12/14 17:07:31;;;;;;;;;;;8.50;63.10;;;6.98;65.37;101638.50;12245024;19;20247;-87
2023/12/14 17:11:33;;;;;;;;;;;8.50;63.10;;;6.80;65.54;101623.38;12241432;19;19918;-87
2023/12/14 17:15:34;;;;;;;;;;;8.50;63.20;;;6.94;65.43;101649.00;12246027;19;19914;-87
2023/12/14 17:19:37;;;;;;;;;;;8.50;63.20;;;6.94;65.60;101660.25;12254645;19;19935;-87
2023/12/14 17:23:39;;;;;;;;;;;8.70;63.40;;;6.94;65.54;101665.47;12256432;19;20359;-88
2023/12/14 17:27:41;;;;;;;;;;;8.50;63.10;;;6.98;65.39;101666.22;12258079;19;20363;-88
2023/12/14 17:31:43;;;;;;;;;;;8.50;63.10;;;6.76;65.23;101643.38;12245724;19;20341;-88
2023/12/14 17:35:44;;;;;;;;;;;8.50;63.00;;;6.90;65.35;101682.00;12254561;19;19907;-87
2023/12/14 17:39:46;;;;;;;;;;;8.70;63.20;;;6.95;65.51;101690.53;12252669;19;20333;-87
2023/12/14 17:43:47;;;;;;;;;;;8.50;63.10;;;6.93;65.48;101702.69;12248899;19;19934;-87
2023/12/14 17:47:49;;;;;;;;;;;8.70;63.20;;;6.88;65.46;101701.94;12254548;19;19927;-86
2023/12/14 17:51:50;;;;;;;;;;;8.50;63.00;;;6.86;65.46;101701.16;12252826;19;19931;-86
2023/12/14 17:55:52;;;;;;;;;;;8.40;62.90;;;6.76;65.38;101684.91;12257168;19;19910;-86
2023/12/14 17:59:53;;;;;;;;;;;8.40;62.90;;;6.69;65.39;101683.34;12255093;19;19925;-86
2023/12/14 18:03:55;;;;;;;;;;;8.40;62.90;;;6.74;65.36;101699.66;12253251;19;19935;-86
2023/12/14 18:07:57;;;;;;;;;;;8.40;63.00;;;6.65;65.35;101682.59;12256533;19;19929;-86
2023/12/14 18:11:58;;;;;;;;;;;8.40;63.20;;;6.89;65.48;101726.19;12251058;19;19918;-86
2023/12/14 18:16:02;;;;;;;;;;;8.40;63.20;;;6.92;65.38;101752.91;12251998;19;19935;-87
2023/12/14 18:20:04;;;;;;;;;;;8.50;63.30;;;6.89;65.53;101745.19;12253350;19;19919;-87
2023/12/14 18:24:05;;;;;;;;;;;8.40;63.00;;;6.81;65.29;101745.38;12253490;19;19918;-87
2023/12/14 18:28:07;;;;;;;;;;;8.40;63.00;;;6.86;65.41;101760.84;12254768;19;19914;-87
2023/12/14 18:32:08;;;;;;;;;;;8.50;63.00;;;6.80;65.28;101761.81;12249878;19;19925;-87